Li2, Po2, Kánya, Cimbora

július 25, 2014

Idén is lesz szerencsénk a Goldtimer alapítvány jóvoltából ezeket az egyedülálló, csodálatos gépeket megcsodálnunk.

Sőt lehetőség lesz mindegyik géptípuson sétarepülésre is, garantáljuk a feledhetetlen élményt, amihez íme egy videó kedvcsinálóként.

Posted in: Repülőnap 2014

Idén nem láthatjuk a JAS-39 -es Gripeneket o:(

július 24, 2014

13e5f342406151e0de1a1cca53fbdba9_XL

Mert sokkal nagyobban gondolkodunk O:)

Részletek hamarosan…

Posted in: Repülőnap 2014

Ígérjük idén sem fognak unatkozni a látogatók…

július 24, 2014

2013 szeptember 8. – Az Albatrosz Repülő Egyesület Repülőnapja Börgöndön
A videóban szereplő repülő alkalmatosságok feltűnési sorrendben:
Li-2, Gazelle SA341G, An-2 “Ancsa”, JAS-39 Gripen, Mi-2, Hungarocopter, Jak-52, R-18 “Kánya”, Kamov Ka-26, L-29 Delfin, MXS (Veres Zoltán), Autogiro

Posted in: Repülőnap 2014

Repülőnap Börgöndön (2014.09.14)

július 24, 2014

Ismét nagyszabású repülőnapot szervez az idén 25. éves Albatrosz Repülő Egyesület.

Különleges repülő programok várják majd az érdeklődőket.

Lehetőség lesz repülni a L-29 Delfin sugárhajtású repülőgépen!

LI- 2 repülőgéppel Budaörs-Börgönd útvonalon nosztalgia járat indul a repülőnapra melyre korlátozott számban lehet jelentkezni.

Érdeklődni a 06 30 / 959 8897 telefonon.

Az oldal folyamatosan frissül a programokkal!

A repülőnap szervezői

Színpadi programok       30/927-6653

Földi bemutatók              30/956-2308

Ellátók vásározók            30/703-5898 

Posted in: Repülőnap 2014

Élőkép

Információk

Albatrosz Repülő Egyesület
8000 Székesfehérvár,
Radványi utca 6.

Adószám:
19092908-2-07

Bankszámla szám:
Budapest Bank
10102952-01361819-00000001

Telefon: +36 30 9598-897

Telephey: Börgönd repülőtér

Börgöndi repülõtér

LHBP METAR/TAF

[source: ADDS]
METAR
TAF LHBP 281700Z 2818/2918 08004KT 9999 SCT030 SCT070 PROB30 TEMPO 2818/2821 VRB12KT 5000 SHRA -TSRA BKN020CB PROB30 TEMPO 2821/2910 8000 -SHRA FEW020CB BKN030 BECMG 2906/2909 14006KT TEMPO 2910/2918 VRB16G28KT 5000 SHRA TSRA BKN020CB TAF
TAF LHBP 281700Z 2818/2918 08004KT 9999 SCT030 SCT070 PROB30 TEMPO 2818/2821 VRB12KT 5000 SHRA -TSRA BKN020CB PROB30 TEMPO 2821/2910 8000 -SHRA FEW020CB BKN030 BECMG 2906/2909 14006KT TEMPO 2910/2918 VRB16G28KT 5000 SHRA TSRA BKN020CB =
SR / SS: 03:23 / 18:25 UTC (Börgönd 2014-07-28)
Hungarian Chinese (Simplified) Croatian Czech English Finnish French German Hebrew Italian Japanese Polish Portuguese Romanian Russian Serbian Slovak Slovenian Spanish

Belépés tagoknak